createdAt,value
2019-06-10T00:02:46.728Z,90.90
2019-06-10T00:05:51.884Z,92.31
2019-06-10T00:08:58.137Z,91.43
2019-06-10T00:12:04.776Z,91.14
2019-06-10T00:15:10.827Z,89.71
2019-06-10T00:18:34.335Z,92.68
2019-06-10T00:21:22.995Z,91.58
2019-06-10T00:24:27.728Z,91.19
2019-06-10T00:27:32.840Z,93.63
2019-06-10T00:30:37.957Z,95.10
2019-06-10T00:33:43.046Z,95.46
2019-06-10T00:36:47.837Z,94.69
2019-06-10T00:39:52.908Z,96.38
2019-06-10T00:42:57.649Z,95.23
2019-06-10T00:46:05.762Z,96.88
2019-06-10T00:49:12.614Z,97.99
2019-06-10T00:52:16.011Z,99.37
2019-06-10T00:55:21.291Z,98.76
2019-06-10T00:58:28.068Z,99.06
2019-06-10T01:01:32.727Z,99.55
2019-06-10T01:04:37.664Z,100.00
2019-06-10T01:07:42.706Z,100.00
2019-06-10T01:10:47.563Z,99.71
2019-06-10T01:13:52.878Z,98.54
2019-06-10T01:16:57.649Z,99.48
2019-06-10T01:20:03.655Z,100.00
2019-06-10T01:23:09.847Z,100.00
2019-06-10T01:26:16.470Z,100.00
2019-06-10T01:29:21.715Z,100.00
2019-06-10T01:32:26.934Z,100.00
2019-06-10T01:35:31.954Z,100.00
2019-06-10T01:38:36.723Z,100.00
2019-06-10T01:41:41.604Z,100.00
2019-06-10T01:44:46.773Z,100.00
2019-06-10T01:47:51.576Z,100.00
2019-06-10T01:50:56.654Z,100.00
2019-06-10T01:54:01.762Z,100.00
2019-06-10T01:57:07.750Z,100.00
2019-06-10T02:00:19.747Z,100.00
2019-06-10T02:03:23.825Z,100.00
2019-06-10T02:06:28.035Z,100.00
2019-06-10T02:09:32.872Z,100.00
2019-06-10T02:12:37.628Z,100.00
2019-06-10T02:15:42.549Z,100.00
2019-06-10T02:18:59.419Z,100.00
2019-06-10T02:21:53.919Z,100.00
2019-06-10T02:25:01.107Z,100.00
2019-06-10T02:28:06.209Z,100.00
2019-06-10T02:31:14.257Z,100.00
2019-06-10T02:34:21.902Z,100.00
2019-06-10T02:37:31.734Z,100.00
2019-06-10T02:40:33.129Z,100.00
2019-06-10T02:43:38.428Z,100.00
2019-06-10T02:46:44.106Z,100.00
2019-06-10T02:49:59.133Z,100.00
2019-06-10T02:52:56.097Z,100.00
2019-06-10T02:56:03.977Z,100.00
2019-06-10T02:59:07.482Z,100.00
2019-06-10T03:02:13.522Z,100.00
2019-06-10T03:05:21.252Z,100.00
2019-06-10T03:08:28.717Z,100.00
2019-06-10T03:11:35.760Z,100.00
2019-06-10T03:14:38.570Z,100.00
2019-06-10T03:17:43.313Z,100.00
2019-06-10T03:20:48.064Z,100.00
2019-06-10T03:23:53.191Z,100.00
2019-06-10T03:26:57.915Z,100.00
2019-06-10T03:30:14.409Z,100.00
2019-06-10T03:33:13.542Z,100.00
2019-06-10T03:36:16.265Z,100.00
2019-06-10T03:39:23.859Z,100.00
2019-06-10T03:42:28.290Z,100.00
2019-06-10T03:45:33.228Z,100.00
2019-06-10T03:48:38.008Z,100.00
2019-06-10T03:51:43.063Z,100.00
2019-06-10T03:54:47.815Z,100.00
2019-06-10T03:57:52.741Z,100.00
2019-06-10T04:00:57.526Z,100.00
2019-06-10T04:04:02.526Z,100.00
2019-06-10T04:07:07.765Z,100.00
2019-06-10T04:10:13.279Z,100.00
2019-06-10T04:13:19.491Z,100.00
2019-06-10T04:16:26.672Z,100.00
2019-06-10T04:19:32.734Z,100.00
2019-06-10T04:22:37.715Z,100.00
2019-06-10T04:25:43.964Z,100.00
2019-06-10T04:28:48.733Z,100.00
2019-06-10T04:31:53.821Z,100.00
2019-06-10T04:34:58.910Z,100.00
2019-06-10T04:38:03.658Z,100.00
2019-06-10T04:41:08.513Z,100.00
2019-06-10T04:44:13.376Z,100.00
2019-06-10T04:47:18.578Z,100.00
2019-06-10T04:50:33.106Z,100.00
2019-06-10T04:53:32.616Z,100.00
2019-06-10T04:56:37.018Z,100.00
2019-06-10T04:59:42.881Z,100.00
2019-06-10T05:02:48.041Z,100.00
2019-06-10T05:05:52.890Z,100.00
2019-06-10T05:08:57.855Z,100.00
2019-06-10T05:12:03.047Z,100.00
2019-06-10T05:15:08.291Z,99.44
2019-06-10T05:18:13.396Z,100.00
2019-06-10T05:21:19.663Z,99.85
2019-06-10T05:24:26.711Z,100.00
2019-06-10T05:27:33.063Z,100.00
2019-06-10T05:30:38.385Z,100.00
2019-06-10T05:33:44.740Z,100.00
2019-06-10T05:36:52.430Z,100.00
2019-06-10T05:39:56.486Z,100.00
2019-06-10T05:43:02.459Z,100.00
2019-06-10T05:46:07.531Z,100.00
2019-06-10T05:49:12.716Z,100.00
2019-06-10T05:52:18.083Z,100.00
2019-06-10T05:55:24.338Z,100.00
2019-06-10T05:58:32.734Z,100.00
2019-06-10T06:01:38.623Z,100.00
2019-06-10T06:04:43.528Z,100.00
2019-06-10T06:08:01.517Z,100.00
2019-06-10T06:10:55.420Z,100.00
2019-06-10T06:14:02.701Z,100.00
2019-06-10T06:17:08.882Z,100.00
2019-06-10T06:20:14.366Z,99.48
2019-06-10T06:23:19.216Z,100.00
2019-06-10T06:26:24.048Z,100.00
2019-06-10T06:29:29.126Z,100.00
2019-06-10T06:32:36.923Z,100.00
2019-06-10T06:35:46.039Z,98.06
2019-06-10T06:38:48.571Z,97.84
2019-06-10T06:41:53.538Z,96.89
2019-06-10T06:44:59.032Z,97.91
2019-06-10T06:48:03.986Z,98.04
2019-06-10T06:51:08.979Z,95.55
2019-06-10T06:54:13.911Z,97.01
2019-06-10T06:57:18.709Z,98.57
2019-06-10T07:00:48.970Z,99.50
2019-06-10T07:03:40.927Z,99.05
2019-06-10T07:06:46.579Z,97.15
2019-06-10T07:09:54.149Z,96.76
2019-06-10T07:13:02.901Z,96.55
2019-06-10T07:16:08.095Z,95.76
2019-06-10T07:19:13.342Z,99.39
2019-06-10T07:22:18.551Z,98.84
2019-06-10T07:25:23.291Z,97.65
2019-06-10T07:28:28.420Z,100.00
2019-06-10T07:31:36.404Z,100.00
2019-06-10T07:34:42.223Z,100.00
2019-06-10T07:37:47.708Z,100.00
2019-06-10T07:40:53.139Z,100.00
2019-06-10T07:43:58.089Z,100.00
2019-06-10T07:47:02.896Z,100.00
2019-06-10T07:50:08.154Z,100.00
2019-06-10T07:53:13.368Z,100.00
2019-06-10T07:56:18.247Z,100.00
2019-06-10T07:59:23.537Z,100.00
2019-06-10T08:02:28.676Z,100.00
2019-06-10T08:05:34.246Z,100.00
2019-06-10T08:08:39.243Z,100.00
2019-06-10T08:11:46.847Z,100.00
2019-06-10T08:14:53.212Z,100.00
2019-06-10T08:17:57.639Z,100.00
2019-06-10T08:21:03.291Z,100.00
2019-06-10T08:24:08.532Z,99.75
2019-06-10T08:27:13.761Z,100.00
2019-06-10T08:30:26.671Z,99.89
2019-06-10T08:33:25.388Z,100.00
2019-06-10T08:36:33.122Z,100.00
2019-06-10T08:39:38.225Z,100.00
2019-06-10T08:42:44.138Z,99.87
2019-06-10T08:45:49.838Z,99.45
2019-06-10T08:48:54.676Z,100.00
2019-06-10T08:52:02.502Z,99.79
2019-06-10T08:55:06.594Z,99.79
2019-06-10T08:58:12.885Z,98.66
2019-06-10T09:01:18.116Z,98.17
2019-06-10T09:04:23.041Z,98.12
2019-06-10T09:07:28.262Z,96.83
2019-06-10T09:10:33.941Z,96.01
2019-06-10T09:13:39.715Z,94.74
2019-06-10T09:16:48.640Z,91.78
2019-06-10T09:19:54.201Z,92.69
2019-06-10T09:23:16.762Z,93.96
2019-06-10T09:26:05.933Z,94.00
2019-06-10T09:29:13.433Z,91.27
2019-06-10T09:32:17.942Z,90.78
2019-06-10T09:35:24.179Z,88.82
2019-06-10T09:38:29.121Z,86.26
2019-06-10T09:41:40.964Z,87.32
2019-06-10T09:44:45.119Z,86.65
2019-06-10T09:47:53.355Z,85.34
2019-06-10T09:50:58.528Z,85.55
2019-06-10T09:54:06.371Z,84.58
2019-06-10T09:57:08.495Z,82.61
2019-06-10T10:00:15.325Z,83.14
2019-06-10T10:03:23.255Z,80.24
2019-06-10T10:06:27.571Z,75.04
2019-06-10T10:09:36.856Z,76.27
2019-06-10T10:12:41.727Z,76.64
2019-06-10T10:15:48.112Z,74.93
2019-06-10T10:19:00.355Z,78.14
2019-06-10T10:22:00.007Z,79.18
2019-06-10T10:25:05.371Z,78.26
2019-06-10T10:28:13.389Z,74.03
2019-06-10T10:31:19.574Z,74.86
2019-06-10T10:34:24.510Z,74.16
2019-06-10T10:37:29.336Z,72.92
2019-06-10T10:40:34.198Z,71.84
2019-06-10T10:43:39.119Z,68.62
2019-06-10T10:46:45.269Z,68.09
2019-06-10T10:49:55.527Z,71.45
2019-06-10T10:52:57.437Z,70.37
2019-06-10T10:56:05.291Z,70.55
2019-06-10T10:59:12.626Z,70.79
2019-06-10T11:02:16.739Z,70.06
2019-06-10T11:05:33.956Z,67.78
2019-06-10T11:08:38.754Z,70.21
2019-06-10T11:11:45.723Z,68.78
2019-06-10T11:14:54.894Z,70.98
2019-06-10T11:17:58.784Z,70.34
2019-06-10T11:21:05.291Z,67.78
2019-06-10T11:24:14.229Z,65.77
2019-06-10T11:27:17.230Z,66.86
2019-06-10T11:30:22.272Z,67.48
2019-06-10T11:33:27.485Z,67.84
2019-06-10T11:36:32.709Z,68.00
2019-06-10T11:39:38.815Z,66.34
2019-06-10T11:42:44.594Z,67.70
2019-06-10T11:45:56.885Z,69.06
2019-06-10T11:48:58.907Z,68.68
2019-06-10T11:52:03.338Z,68.30
2019-06-10T11:55:15.287Z,69.44
2019-06-10T11:58:15.182Z,69.21
2019-06-10T12:01:22.675Z,69.85
2019-06-10T12:04:26.760Z,66.16
2019-06-10T12:07:33.190Z,63.35
2019-06-10T12:10:39.092Z,61.24
2019-06-10T12:13:43.904Z,62.80
2019-06-10T12:17:17.788Z,61.78
2019-06-10T12:19:59.402Z,61.96
2019-06-10T12:23:04.551Z,61.49
2019-06-10T12:26:09.470Z,62.36
2019-06-10T12:29:14.340Z,63.21
2019-06-10T12:32:19.217Z,62.03
2019-06-10T12:35:24.317Z,61.93
2019-06-10T12:38:29.105Z,62.26
2019-06-10T12:41:34.057Z,61.96
2019-06-10T12:44:38.968Z,61.94
2019-06-10T12:47:43.847Z,62.24
2019-06-10T12:50:48.631Z,63.58
2019-06-10T12:53:53.685Z,63.51
2019-06-10T12:57:00.452Z,64.79
2019-06-10T13:00:19.198Z,66.98
2019-06-10T13:03:15.821Z,68.31
2019-06-10T13:06:23.554Z,72.90
2019-06-10T13:09:29.529Z,73.25
2019-06-10T13:12:34.361Z,74.22
2019-06-10T13:15:42.607Z,75.31
2019-06-10T13:18:46.195Z,76.25
2019-06-10T13:21:52.927Z,76.12
2019-06-10T13:25:00.407Z,80.20
2019-06-10T13:28:06.808Z,78.02
2019-06-10T13:31:14.082Z,80.58
2019-06-10T13:34:19.029Z,79.85
2019-06-10T13:37:23.886Z,81.13
2019-06-10T13:40:31.887Z,79.10
2019-06-10T13:43:36.620Z,81.87
2019-06-10T13:46:42.516Z,82.07
2019-06-10T13:49:49.586Z,81.92
2019-06-10T13:52:54.778Z,82.82
2019-06-10T13:56:23.533Z,82.49
2019-06-10T13:59:09.501Z,83.19
2019-06-10T14:02:13.637Z,81.29
2019-06-10T14:05:18.696Z,80.57
2019-06-10T14:08:24.317Z,82.89
2019-06-10T14:11:30.163Z,80.07
2019-06-10T14:14:35.273Z,83.04
2019-06-10T14:17:41.891Z,79.60
2019-06-10T14:20:47.090Z,77.97
2019-06-10T14:23:52.275Z,78.27
2019-06-10T14:26:57.145Z,77.45
2019-06-10T14:30:04.945Z,79.41
2019-06-10T14:33:14.249Z,77.71
2019-06-10T14:36:17.041Z,77.73
2019-06-10T14:39:22.295Z,78.26
2019-06-10T14:42:27.069Z,77.96
2019-06-10T14:45:32.674Z,77.48
2019-06-10T14:48:37.573Z,77.58
2019-06-10T14:51:43.125Z,77.35
2019-06-10T14:54:48.196Z,80.15
2019-06-10T14:57:53.296Z,79.92
2019-06-10T15:00:58.644Z,81.01
2019-06-10T15:04:03.880Z,79.99
2019-06-10T15:07:09.353Z,75.48
2019-06-10T15:10:17.496Z,78.25
2019-06-10T15:13:23.434Z,78.24
2019-06-10T15:16:28.747Z,80.11
2019-06-10T15:19:33.553Z,80.14
2019-06-10T15:22:39.464Z,79.75
2019-06-10T15:25:52.394Z,80.00
2019-06-10T15:28:52.207Z,79.46
2019-06-10T15:32:10.604Z,76.01
2019-06-10T15:35:05.005Z,76.85
2019-06-10T15:38:12.276Z,76.01
2019-06-10T15:41:19.514Z,76.42
2019-06-10T15:44:37.245Z,77.45
2019-06-10T15:47:29.492Z,75.92
2019-06-10T15:50:34.466Z,75.66
2019-06-10T15:53:39.467Z,75.05
2019-06-10T15:56:51.904Z,76.29
2019-06-10T15:59:52.125Z,76.23
2019-06-10T16:02:57.049Z,76.96
2019-06-10T16:06:03.298Z,76.05
2019-06-10T16:09:08.626Z,75.31
2019-06-10T16:12:16.086Z,76.05
2019-06-10T16:15:24.313Z,76.82
2019-06-10T16:18:28.151Z,74.98
2019-06-10T16:21:33.100Z,76.45
2019-06-10T16:24:37.884Z,77.92
2019-06-10T16:27:50.719Z,79.51
2019-06-10T16:30:49.982Z,81.10
2019-06-10T16:33:55.071Z,81.85
2019-06-10T16:37:02.313Z,83.82
2019-06-10T16:40:08.272Z,84.47
2019-06-10T16:43:13.465Z,86.67
2019-06-10T16:46:18.312Z,87.98
2019-06-10T16:49:23.806Z,87.85
2019-06-10T16:52:30.372Z,86.92
2019-06-10T16:55:35.212Z,88.30
2019-06-10T16:58:40.366Z,87.73
2019-06-10T17:01:45.290Z,90.44
2019-06-10T17:04:52.646Z,93.53
2019-06-10T17:07:57.337Z,91.15
2019-06-10T17:11:03.333Z,90.11
2019-06-10T17:14:08.621Z,93.17
2019-06-10T17:17:13.769Z,94.77
2019-06-10T17:20:18.695Z,93.92
2019-06-10T17:23:26.924Z,93.71
2019-06-10T17:26:37.375Z,94.91
2019-06-10T17:29:37.356Z,95.23
2019-06-10T17:32:42.683Z,93.56
2019-06-10T17:35:47.685Z,92.17
2019-06-10T17:38:52.949Z,91.47
2019-06-10T17:41:58.162Z,91.02
2019-06-10T17:45:03.075Z,90.65
2019-06-10T17:48:08.457Z,94.24
2019-06-10T17:51:13.312Z,95.26
2019-06-10T17:54:18.503Z,93.15
2019-06-10T17:57:26.555Z,94.33
2019-06-10T18:00:36.075Z,91.35
2019-06-10T18:03:40.012Z,93.30
2019-06-10T18:06:45.244Z,94.22
2019-06-10T18:09:50.093Z,94.94
2019-06-10T18:12:55.398Z,94.37
2019-06-10T18:16:02.683Z,91.94
2019-06-10T18:19:07.081Z,92.35
2019-06-10T18:22:12.565Z,93.17
2019-06-10T18:25:17.894Z,92.44
2019-06-10T18:28:24.951Z,93.66
2019-06-10T18:31:33.682Z,93.03
2019-06-10T18:34:38.085Z,93.06
2019-06-10T18:37:43.026Z,91.65
2019-06-10T18:40:48.247Z,90.80
2019-06-10T18:43:54.206Z,90.26
2019-06-10T18:46:59.036Z,90.50
2019-06-10T18:50:04.818Z,90.64
2019-06-10T18:53:12.831Z,89.84
2019-06-10T18:56:16.512Z,89.86
2019-06-10T18:59:21.701Z,91.01
2019-06-10T19:02:28.232Z,92.84
2019-06-10T19:05:36.351Z,94.43
2019-06-10T19:08:44.309Z,94.23
2019-06-10T19:11:49.329Z,93.50
2019-06-10T19:14:54.357Z,94.75
2019-06-10T19:17:59.160Z,94.80
2019-06-10T19:21:07.709Z,94.45
2019-06-10T19:24:12.803Z,93.50
2019-06-10T19:27:17.244Z,94.00
2019-06-10T19:30:23.389Z,94.89
2019-06-10T19:33:28.207Z,93.91
2019-06-10T19:36:33.625Z,94.25
2019-06-10T19:39:45.158Z,93.82
2019-06-10T19:42:45.446Z,94.70
2019-06-10T19:45:52.780Z,94.23
2019-06-10T19:49:02.847Z,94.57
2019-06-10T19:52:03.466Z,94.57
2019-06-10T19:55:08.819Z,93.79
2019-06-10T19:58:13.965Z,94.49
2019-06-10T20:01:18.784Z,94.01
2019-06-10T20:04:24.170Z,94.63
2019-06-10T20:07:28.981Z,95.56
2019-06-10T20:10:34.096Z,96.28
2019-06-10T20:13:38.939Z,95.57
2019-06-10T20:16:45.969Z,97.27
2019-06-10T20:19:50.925Z,97.39
2019-06-10T20:22:57.500Z,97.04
2019-06-10T20:26:02.567Z,96.01
2019-06-10T20:29:07.515Z,96.67
2019-06-10T20:32:13.311Z,97.95
2019-06-10T20:35:19.443Z,99.76
2019-06-10T20:38:24.591Z,100.00
2019-06-10T20:41:29.414Z,99.86
2019-06-10T20:44:34.262Z,100.00
2019-06-10T20:47:39.579Z,100.00
2019-06-10T20:50:47.358Z,100.00
2019-06-10T20:53:53.308Z,100.00
2019-06-10T20:56:58.685Z,100.00
2019-06-10T21:00:18.549Z,100.00
2019-06-10T21:03:12.024Z,100.00
2019-06-10T21:06:18.784Z,100.00
2019-06-10T21:09:25.737Z,100.00
2019-06-10T21:12:32.706Z,100.00
2019-06-10T21:15:37.265Z,100.00
2019-06-10T21:18:45.540Z,100.00
2019-06-10T21:21:50.354Z,100.00
2019-06-10T21:24:55.584Z,100.00
2019-06-10T21:28:03.056Z,100.00
2019-06-10T21:31:07.819Z,100.00
2019-06-10T21:34:13.292Z,100.00
2019-06-10T21:37:18.378Z,100.00
2019-06-10T21:40:23.544Z,100.00
2019-06-10T21:43:28.768Z,100.00
2019-06-10T21:46:34.037Z,100.00
2019-06-10T21:49:38.865Z,100.00
2019-06-10T21:52:45.764Z,100.00
2019-06-10T21:55:51.409Z,100.00
2019-06-10T21:58:57.016Z,100.00
2019-06-10T22:02:03.669Z,100.00
2019-06-10T22:05:12.303Z,100.00
2019-06-10T22:08:17.591Z,100.00
2019-06-10T22:11:23.374Z,100.00
2019-06-10T22:14:28.779Z,100.00
2019-06-10T22:17:33.640Z,100.00
2019-06-10T22:20:38.512Z,100.00
2019-06-10T22:23:44.670Z,100.00
2019-06-10T22:26:51.021Z,100.00
2019-06-10T22:29:57.175Z,100.00
2019-06-10T22:33:03.532Z,100.00
2019-06-10T22:36:08.462Z,100.00
2019-06-10T22:39:13.363Z,100.00
2019-06-10T22:42:18.706Z,100.00
2019-06-10T22:45:23.504Z,100.00
2019-06-10T22:48:28.936Z,100.00
2019-06-10T22:51:33.742Z,100.00
2019-06-10T22:54:38.999Z,100.00
2019-06-10T22:57:44.161Z,100.00
2019-06-10T23:00:49.990Z,100.00
2019-06-10T23:03:56.313Z,100.00
2019-06-10T23:07:03.183Z,100.00
2019-06-10T23:10:08.669Z,100.00
2019-06-10T23:13:16.364Z,100.00
2019-06-10T23:16:22.124Z,100.00
2019-06-10T23:19:27.305Z,100.00
2019-06-10T23:22:32.238Z,100.00
2019-06-10T23:25:37.078Z,100.00
2019-06-10T23:28:42.411Z,100.00
2019-06-10T23:31:54.218Z,100.00
2019-06-10T23:34:57.753Z,100.00
2019-06-10T23:38:04.996Z,100.00
2019-06-10T23:41:08.323Z,100.00
2019-06-10T23:44:13.119Z,100.00
2019-06-10T23:47:18.191Z,100.00
2019-06-10T23:50:22.994Z,100.00
2019-06-10T23:53:27.746Z,100.00
2019-06-10T23:56:32.683Z,100.00
2019-06-10T23:59:37.804Z,100.00
